Time;durP1;ratioP1;P1;durP2;ratioP2;P2;SDS_P1;SDS_P2;PMS_P1;PMS_P2;Temp;Humidity;BMP_temperature;BMP_pressure;BME280_temperature;BME280_humidity;BME280_pressure;Samples;Min_cycle;Max_cycle;Signal;HPM_P1;HPM_P2
2022/05/18 00:02:55;;;;;;;11.77;7.03;;;;;;;;;;6213716;23;20175;-91
2022/05/18 00:06:01;;;;;;;13.02;7.40;;;;;;;;;;6212725;23;20163;-90
2022/05/18 00:09:07;;;;;;;12.98;7.93;;;;;;;;;;6231737;23;20151;-91
2022/05/18 00:12:14;;;;;;;12.25;7.70;;;;;;;;;;6229928;23;20287;-91
2022/05/18 00:15:21;;;;;;;12.15;7.18;;;;;;;;;;6230686;23;20203;-90
2022/05/18 00:22:45;;;;;;;12.13;6.97;;;;;;;;;;6231545;23;20203;-91
2022/05/18 00:25:50;;;;;;;15.10;8.13;;;;;;;;;;6230988;23;20234;-89
2022/05/18 00:28:57;;;;;;;14.65;7.82;;;;;;;;;;6212364;23;20151;-88
2022/05/18 00:32:02;;;;;;;13.40;8.05;;;;;;;;;;6229460;23;20170;-89
2022/05/18 00:35:08;;;;;;;13.48;7.63;;;;;;;;;;6212849;23;20218;-90
2022/05/18 00:38:14;;;;;;;15.07;7.30;;;;;;;;;;6231458;23;20154;-91
2022/05/18 00:41:20;;;;;;;15.43;7.95;;;;;;;;;;6213921;23;20195;-90
2022/05/18 00:44:27;;;;;;;11.15;7.15;;;;;;;;;;6229668;23;20195;-91
2022/05/18 00:47:33;;;;;;;14.93;7.53;;;;;;;;;;6229332;23;20216;-91
2022/05/18 00:50:41;;;;;;;16.65;7.82;;;;;;;;;;6213940;23;20151;-92
2022/05/18 00:53:49;;;;;;;12.25;8.02;;;;;;;;;;6229701;23;20214;-91
2022/05/18 00:56:56;;;;;;;13.68;7.53;;;;;;;;;;6213292;23;20168;-92
2022/05/18 01:00:07;;;;;;;16.88;8.43;;;;;;;;;;6240018;23;20167;-91
2022/05/18 01:03:16;;;;;;;14.82;7.78;;;;;;;;;;6228640;23;20152;-93
2022/05/18 01:06:26;;;;;;;21.90;7.70;;;;;;;;;;6212712;23;20205;-92
2022/05/18 01:09:35;;;;;;;12.90;7.65;;;;;;;;;;6211403;23;20210;-90
2022/05/18 01:12:41;;;;;;;16.20;8.52;;;;;;;;;;6230507;23;20200;-91
2022/05/18 01:15:48;;;;;;;16.88;8.52;;;;;;;;;;6231001;23;20146;-91
2022/05/18 01:23:26;;;;;;;13.68;8.10;;;;;;;;;;6229947;23;20148;-91
2022/05/18 01:26:36;;;;;;;13.60;8.57;;;;;;;;;;6228295;23;20191;-91
2022/05/18 01:29:41;;;;;;;17.05;8.80;;;;;;;;;;6229212;23;20210;-91
2022/05/18 01:32:47;;;;;;;15.50;9.63;;;;;;;;;;6211613;23;20171;-90
2022/05/18 01:39:14;;;;;;;15.32;8.98;;;;;;;;;;6228450;23;20183;-91
2022/05/18 01:42:27;;;;;;;16.20;8.82;;;;;;;;;;6227246;23;20195;-91
2022/05/18 01:45:32;;;;;;;15.88;9.55;;;;;;;;;;6212203;23;20175;-91
2022/05/18 01:48:38;;;;;;;16.42;9.10;;;;;;;;;;6230156;23;20166;-91
2022/05/18 01:51:47;;;;;;;17.15;9.10;;;;;;;;;;6227522;23;20171;-90
2022/05/18 01:54:53;;;;;;;16.70;8.85;;;;;;;;;;6211834;23;20183;-90
2022/05/18 01:58:01;;;;;;;20.80;9.55;;;;;;;;;;6228335;23;20236;-90
2022/05/18 02:01:06;;;;;;;19.02;9.68;;;;;;;;;;6212599;23;20171;-91
2022/05/18 02:04:12;;;;;;;16.60;8.35;;;;;;;;;;6230609;23;20339;-91
2022/05/18 02:07:18;;;;;;;21.02;9.52;;;;;;;;;;6212080;23;20214;-91
2022/05/18 02:10:23;;;;;;;13.57;8.15;;;;;;;;;;6229888;23;20163;-90
2022/05/18 02:13:29;;;;;;;15.93;9.10;;;;;;;;;;6211637;23;20170;-90
2022/05/18 02:16:35;;;;;;;20.67;9.13;;;;;;;;;;6211890;23;20167;-90
2022/05/18 02:19:41;;;;;;;15.85;9.18;;;;;;;;;;6230672;23;20170;-89
2022/05/18 02:22:46;;;;;;;16.63;8.55;;;;;;;;;;6228654;23;20199;-90
2022/05/18 02:25:51;;;;;;;15.20;8.65;;;;;;;;;;6228210;23;20178;-90
2022/05/18 02:28:58;;;;;;;14.68;8.50;;;;;;;;;;6211344;23;20170;-89
2022/05/18 02:32:03;;;;;;;12.68;8.52;;;;;;;;;;6211869;23;20283;-90
2022/05/18 02:35:09;;;;;;;19.00;9.13;;;;;;;;;;6213001;23;20171;-90
2022/05/18 02:38:15;;;;;;;18.50;8.60;;;;;;;;;;6230014;23;20171;-90
2022/05/18 02:41:21;;;;;;;15.27;9.50;;;;;;;;;;6232828;23;20182;-90
2022/05/18 02:44:28;;;;;;;14.07;8.75;;;;;;;;;;6231250;23;20232;-90
2022/05/18 02:47:33;;;;;;;16.23;8.57;;;;;;;;;;6232739;23;20174;-89
2022/05/18 02:50:38;;;;;;;19.45;8.85;;;;;;;;;;6232702;23;20166;-89
2022/05/18 02:53:43;;;;;;;20.73;8.73;;;;;;;;;;6232258;23;20163;-89
2022/05/18 02:56:47;;;;;;;17.52;8.40;;;;;;;;;;6232429;22;20163;-91
2022/05/18 02:59:54;;;;;;;18.25;8.32;;;;;;;;;;6210731;23;20218;-90
2022/05/18 03:02:59;;;;;;;17.95;8.80;;;;;;;;;;6229146;23;20175;-90
2022/05/18 03:06:05;;;;;;;16.00;9.38;;;;;;;;;;6210737;23;20164;-90
2022/05/18 03:09:10;;;;;;;15.77;8.98;;;;;;;;;;6228199;23;20211;-90
2022/05/18 03:12:15;;;;;;;16.15;9.80;;;;;;;;;;6227454;23;20164;-90
2022/05/18 03:15:21;;;;;;;13.45;9.15;;;;;;;;;;6227927;23;20167;-90
2022/05/18 03:18:27;;;;;;;17.77;9.23;;;;;;;;;;6227918;23;20168;-89
2022/05/18 03:24:54;;;;;;;16.67;9.98;;;;;;;;;;6229550;23;20299;-90
2022/05/18 03:27:59;;;;;;;18.38;9.75;;;;;;;;;;6231123;23;20171;-91
2022/05/18 03:31:06;;;;;;;19.23;10.13;;;;;;;;;;6229458;23;20167;-90
2022/05/18 03:34:12;;;;;;;23.52;10.88;;;;;;;;;;6211870;23;20175;-90
2022/05/18 03:37:17;;;;;;;21.15;10.38;;;;;;;;;;6212240;23;20614;-90
2022/05/18 03:40:22;;;;;;;16.83;10.27;;;;;;;;;;6215393;23;20175;-90
2022/05/18 03:43:28;;;;;;;16.95;9.77;;;;;;;;;;6211949;23;20519;-90
2022/05/18 03:46:36;;;;;;;15.77;10.48;;;;;;;;;;6228029;23;20232;-91
2022/05/18 03:49:41;;;;;;;15.77;10.55;;;;;;;;;;6212423;23;20154;-91
2022/05/18 03:52:46;;;;;;;18.50;10.55;;;;;;;;;;6210693;23;20167;-92
2022/05/18 03:55:51;;;;;;;21.08;10.40;;;;;;;;;;6211633;23;20211;-90
2022/05/18 03:58:57;;;;;;;16.88;10.65;;;;;;;;;;6210294;23;20179;-90
2022/05/18 04:02:28;;;;;;;17.70;10.95;;;;;;;;;;6220290;23;20187;-89
2022/05/18 04:05:37;;;;;;;20.10;11.02;;;;;;;;;;6218980;23;20167;-91
2022/05/18 04:08:42;;;;;;;20.33;11.15;;;;;;;;;;6212547;23;20160;-90
2022/05/18 04:11:48;;;;;;;17.63;10.18;;;;;;;;;;6210997;23;20167;-91
2022/05/18 04:14:54;;;;;;;20.25;10.27;;;;;;;;;;6214089;23;20183;-90
2022/05/18 04:17:59;;;;;;;18.55;10.73;;;;;;;;;;6212953;23;20254;-91
2022/05/18 04:21:13;;;;;;;15.60;9.63;;;;;;;;;;6233528;23;20193;-90
2022/05/18 04:24:18;;;;;;;15.32;10.43;;;;;;;;;;6229954;23;20166;-92
2022/05/18 04:27:23;;;;;;;18.42;9.95;;;;;;;;;;6212041;23;20168;-91
2022/05/18 04:30:29;;;;;;;19.50;9.85;;;;;;;;;;6214065;23;20155;-91
2022/05/18 04:33:34;;;;;;;15.68;9.80;;;;;;;;;;6213230;23;20168;-89
2022/05/18 04:36:42;;;;;;;18.90;10.10;;;;;;;;;;6212773;23;20250;-90
2022/05/18 04:39:48;;;;;;;20.17;9.75;;;;;;;;;;6211976;23;20470;-92
2022/05/18 04:42:53;;;;;;;14.40;9.38;;;;;;;;;;6230328;23;20220;-91
2022/05/18 04:45:58;;;;;;;16.92;9.35;;;;;;;;;;6229400;23;20148;-90
2022/05/18 04:49:03;;;;;;;18.45;9.18;;;;;;;;;;6231154;23;20211;-90
2022/05/18 04:52:10;;;;;;;15.25;8.63;;;;;;;;;;6231670;23;20171;-91
2022/05/18 04:55:16;;;;;;;14.02;9.38;;;;;;;;;;6213322;23;20170;-91
2022/05/18 04:58:22;;;;;;;16.40;9.40;;;;;;;;;;6212604;23;20194;-91
2022/05/18 05:01:30;;;;;;;13.25;9.25;;;;;;;;;;6232788;23;20167;-91
2022/05/18 05:04:36;;;;;;;18.27;9.48;;;;;;;;;;6231484;23;20167;-88
2022/05/18 05:07:42;;;;;;;19.33;9.82;;;;;;;;;;6214108;23;20191;-90
2022/05/18 05:10:47;;;;;;;13.20;8.48;;;;;;;;;;6229367;23;20167;-92
2022/05/18 05:13:52;;;;;;;14.20;9.05;;;;;;;;;;6229227;23;20186;-90
2022/05/18 05:16:57;;;;;;;15.05;8.35;;;;;;;;;;6232457;23;20174;-90
2022/05/18 05:20:02;;;;;;;14.77;8.07;;;;;;;;;;6230811;23;20214;-91
2022/05/18 05:23:09;;;;;;;12.88;8.68;;;;;;;;;;6211834;23;20198;-91
2022/05/18 05:26:15;;;;;;;14.05;8.40;;;;;;;;;;6231624;23;20525;-90
2022/05/18 05:29:20;;;;;;;13.25;8.20;;;;;;;;;;6232972;23;20171;-92
2022/05/18 05:32:26;;;;;;;18.98;9.02;;;;;;;;;;6212295;23;20229;-91
2022/05/18 05:35:31;;;;;;;13.43;7.78;;;;;;;;;;6230887;23;20151;-91
2022/05/18 05:38:38;;;;;;;14.85;8.02;;;;;;;;;;6233156;23;20171;-90
2022/05/18 05:41:43;;;;;;;13.68;8.13;;;;;;;;;;6214719;23;20174;-91
2022/05/18 05:44:49;;;;;;;14.20;8.82;;;;;;;;;;6232487;23;20163;-90
2022/05/18 05:47:54;;;;;;;13.55;8.70;;;;;;;;;;6213121;23;20234;-90
2022/05/18 05:51:00;;;;;;;16.90;9.52;;;;;;;;;;6212752;23;20224;-90
2022/05/18 05:54:08;;;;;;;22.00;8.85;;;;;;;;;;6230516;23;20158;-91
2022/05/18 05:57:14;;;;;;;12.82;8.10;;;;;;;;;;6232664;23;20187;-91
2022/05/18 06:00:20;;;;;;;13.20;8.77;;;;;;;;;;6231918;23;20626;-90
2022/05/18 06:03:26;;;;;;;10.98;6.07;;;;;;;;;;6217741;23;20234;-91
2022/05/18 06:06:35;;;;;;;15.73;6.85;;;;;;;;;;6216090;23;20167;-90
2022/05/18 06:09:42;;;;;;;12.18;5.80;;;;;;;;;;6229358;23;20171;-90
2022/05/18 06:12:47;;;;;;;10.45;6.65;;;;;;;;;;6229859;23;20163;-90
2022/05/18 06:15:53;;;;;;;10.32;5.35;;;;;;;;;;6231228;23;20634;-91
2022/05/18 06:19:02;;;;;;;7.78;5.30;;;;;;;;;;6231997;23;20175;-92
2022/05/18 06:22:08;;;;;;;15.88;6.10;;;;;;;;;;6216019;23;20183;-91
2022/05/18 06:25:15;;;;;;;10.05;5.20;;;;;;;;;;6231020;23;20198;-91
2022/05/18 06:28:22;;;;;;;13.85;5.30;;;;;;;;;;6239709;23;20175;-91
2022/05/18 06:31:28;;;;;;;11.55;5.20;;;;;;;;;;6229498;23;20175;-90
2022/05/18 06:37:57;;;;;;;10.25;4.15;;;;;;;;;;6231847;23;20225;-91
2022/05/18 06:44:31;;;;;;;7.25;3.22;;;;;;;;;;6231023;23;20187;-91
2022/05/18 06:47:36;;;;;;;6.00;3.10;;;;;;;;;;6212810;23;20163;-92
2022/05/18 06:50:42;;;;;;;4.72;3.30;;;;;;;;;;6231251;23;20170;-90
2022/05/18 06:53:47;;;;;;;8.27;3.13;;;;;;;;;;6231833;23;20171;-92
2022/05/18 06:56:54;;;;;;;4.97;2.30;;;;;;;;;;6228228;23;20610;-92
2022/05/18 06:59:59;;;;;;;4.68;2.72;;;;;;;;;;6213915;23;20167;-91
2022/05/18 07:03:05;;;;;;;5.00;2.47;;;;;;;;;;6215748;23;20518;-91
2022/05/18 07:06:10;;;;;;;12.57;2.72;;;;;;;;;;6214508;23;20155;-92
2022/05/18 07:09:17;;;;;;;5.40;1.98;;;;;;;;;;6231905;23;20163;-91
2022/05/18 07:12:23;;;;;;;6.80;2.10;;;;;;;;;;6213655;23;20179;-90
2022/05/18 07:15:29;;;;;;;3.83;2.00;;;;;;;;;;6229236;23;20168;-91
2022/05/18 07:18:35;;;;;;;5.00;2.33;;;;;;;;;;6230339;23;20222;-91
2022/05/18 07:21:40;;;;;;;8.23;2.17;;;;;;;;;;6228541;23;20171;-92
2022/05/18 07:24:46;;;;;;;7.38;2.15;;;;;;;;;;6231017;23;20223;-92
2022/05/18 07:27:56;;;;;;;3.97;1.83;;;;;;;;;;6234301;23;20191;-91
2022/05/18 07:31:01;;;;;;;4.90;2.03;;;;;;;;;;6216885;23;20190;-92
2022/05/18 07:34:07;;;;;;;4.47;1.70;;;;;;;;;;6236373;23;20155;-90
2022/05/18 07:37:12;;;;;;;5.20;1.85;;;;;;;;;;6236195;23;20219;-89
2022/05/18 07:40:18;;;;;;;4.95;1.73;;;;;;;;;;6232537;23;20174;-91
2022/05/18 07:43:26;;;;;;;8.18;1.73;;;;;;;;;;6218738;23;20225;-92
2022/05/18 07:46:32;;;;;;;13.25;1.95;;;;;;;;;;6234755;23;20673;-93
2022/05/18 07:49:38;;;;;;;4.65;2.08;;;;;;;;;;6220212;23;20179;-89
2022/05/18 07:52:44;;;;;;;4.68;1.52;;;;;;;;;;6215470;23;20183;-92
2022/05/18 07:55:49;;;;;;;8.00;1.95;;;;;;;;;;6233219;23;20167;-91
2022/05/18 07:58:57;;;;;;;3.97;1.70;;;;;;;;;;6235607;23;20205;-91
2022/05/18 08:02:02;;;;;;;5.18;1.67;;;;;;;;;;6216442;23;20533;-91
2022/05/18 08:05:08;;;;;;;4.07;1.73;;;;;;;;;;6217614;23;20154;-92
2022/05/18 08:08:14;;;;;;;4.22;1.67;;;;;;;;;;6236418;23;20171;-90
2022/05/18 08:18:09;;;;;;;5.03;1.73;;;;;;;;;;6235003;23;20170;-92
2022/05/18 08:21:15;;;;;;;6.68;2.00;;;;;;;;;;6234541;23;20257;-92
2022/05/18 08:24:20;;;;;;;4.93;1.67;;;;;;;;;;6235991;23;20202;-91
2022/05/18 08:27:26;;;;;;;7.10;1.98;;;;;;;;;;6234319;23;20186;-89
2022/05/18 08:30:33;;;;;;;4.82;1.52;;;;;;;;;;6217037;23;20206;-91
2022/05/18 08:33:39;;;;;;;3.53;1.70;;;;;;;;;;6237468;23;20174;-91
2022/05/18 08:36:45;;;;;;;5.95;2.05;;;;;;;;;;6239044;23;20183;-92
2022/05/18 08:39:50;;;;;;;3.55;1.95;;;;;;;;;;6236518;23;20187;-91
2022/05/18 08:42:56;;;;;;;13.25;1.63;;;;;;;;;;6218264;23;20310;-92
2022/05/18 08:46:06;;;;;;;4.20;1.60;;;;;;;;;;6217077;23;20220;-92
2022/05/18 08:49:17;;;;;;;3.92;1.48;;;;;;;;;;6234975;23;20210;-91
2022/05/18 08:52:30;;;;;;;6.53;2.75;;;;;;;;;;6218339;23;20167;-90
2022/05/18 08:55:48;;;;;;;4.97;1.90;;;;;;;;;;6233776;23;20171;-92
2022/05/18 08:58:54;;;;;;;4.60;1.70;;;;;;;;;;6217401;23;20171;-90
2022/05/18 09:02:03;;;;;;;7.38;2.45;;;;;;;;;;6215582;23;20174;-92
2022/05/18 09:05:12;;;;;;;5.50;1.70;;;;;;;;;;6234942;23;20227;-91
2022/05/18 09:08:22;;;;;;;7.50;1.65;;;;;;;;;;6216830;23;20166;-92
2022/05/18 09:11:27;;;;;;;4.07;1.55;;;;;;;;;;6217872;23;20171;-92
2022/05/18 09:14:39;;;;;;;6.70;1.58;;;;;;;;;;6236537;23;20194;-91
2022/05/18 09:17:49;;;;;;;8.32;1.88;;;;;;;;;;6234945;23;20211;-93
2022/05/18 09:21:00;;;;;;;5.35;1.80;;;;;;;;;;6217114;23;20165;-89
2022/05/18 09:24:12;;;;;;;4.10;2.22;;;;;;;;;;6235890;23;20266;-90
2022/05/18 09:27:29;;;;;;;8.10;1.85;;;;;;;;;;6236470;23;20190;-91
2022/05/18 09:30:39;;;;;;;3.45;1.70;;;;;;;;;;6216593;23;20166;-90
2022/05/18 09:33:54;;;;;;;3.80;1.45;;;;;;;;;;6232483;23;20181;-93
2022/05/18 09:37:08;;;;;;;5.30;1.80;;;;;;;;;;6233615;23;20171;-91
2022/05/18 09:40:17;;;;;;;4.85;1.75;;;;;;;;;;6235321;23;20169;-94
2022/05/18 09:43:26;;;;;;;4.80;1.90;;;;;;;;;;6215934;23;20198;-91
2022/05/18 09:46:33;;;;;;;4.55;1.50;;;;;;;;;;6235509;23;20162;-91
2022/05/18 09:49:50;;;;;;;5.43;1.88;;;;;;;;;;6234569;23;20193;-91
2022/05/18 09:53:02;;;;;;;5.32;1.60;;;;;;;;;;6219988;23;20170;-93
2022/05/18 09:56:10;;;;;;;19.88;2.00;;;;;;;;;;6234108;23;20167;-92
2022/05/18 09:59:18;;;;;;;3.80;1.80;;;;;;;;;;6232415;23;20216;-92
2022/05/18 23:07:32;;;;;;;9.43;3.72;;;;;;;;;;6204576;23;20179;-93
2022/05/18 23:10:37;;;;;;;4.80;2.90;;;;;;;;;;6205101;23;20221;-90
2022/05/18 23:13:43;;;;;;;5.30;2.58;;;;;;;;;;6187215;23;20249;-88
2022/05/18 23:16:48;;;;;;;8.27;2.80;;;;;;;;;;6206852;23;20227;-91
2022/05/18 23:19:58;;;;;;;7.30;2.75;;;;;;;;;;6204805;23;20172;-89
2022/05/18 23:26:32;;;;;;;6.68;2.75;;;;;;;;;;6204164;23;20191;-91
2022/05/18 23:29:37;;;;;;;7.18;2.80;;;;;;;;;;6187266;23;20148;-91
2022/05/18 23:32:42;;;;;;;5.15;2.58;;;;;;;;;;6202922;23;20167;-91
2022/05/18 23:35:48;;;;;;;7.57;2.92;;;;;;;;;;6184625;23;20164;-91
2022/05/18 23:38:55;;;;;;;4.57;2.78;;;;;;;;;;6186131;23;20216;-90
2022/05/18 23:46:23;;;;;;;7.88;2.80;;;;;;;;;;6203783;23;20597;-91
2022/05/18 23:49:30;;;;;;;5.82;2.92;;;;;;;;;;6185354;23;20240;-90
2022/05/18 23:52:34;;;;;;;10.18;3.10;;;;;;;;;;6184328;23;20172;-91
2022/05/18 23:55:42;;;;;;;4.80;2.90;;;;;;;;;;6201789;23;20148;-89
2022/05/18 23:58:49;;;;;;;5.68;2.88;;;;;;;;;;6187275;23;20211;-91
